Time;durP1;ratioP1;P1;durP2;ratioP2;P2;SDS_P1;SDS_P2;PMS_P1;PMS_P2;Temp;Humidity;BMP_temperature;BMP_pressure;BME280_temperature;BME280_humidity;BME280_pressure;Samples;Min_cycle;Max_cycle;Signal;HPM_P1;HPM_P2
2023/07/22 00:00:15;;;;;;;15.63;8.40;;;;;;;15.10;94.31;101310.25;5069253;28;20035;-71
2023/07/22 00:02:43;;;;;;;15.05;7.32;;;;;;;15.10;93.70;101310.25;5069271;28;20037;-71
2023/07/22 00:05:12;;;;;;;15.25;8.20;;;;;;;15.12;94.23;101308.19;5069213;28;20485;-71
2023/07/22 00:07:40;;;;;;;14.40;7.45;;;;;;;15.11;94.05;101321.81;5069228;28;20025;-71
2023/07/22 00:10:06;;;;;;;15.45;7.43;;;;;;;15.10;93.17;101314.81;5069277;28;20035;-71
2023/07/22 00:12:32;;;;;;;14.68;7.68;;;;;;;15.11;93.56;101319.13;5067811;28;20032;-71
2023/07/22 00:14:57;;;;;;;20.45;7.85;;;;;;;15.09;93.20;101314.00;5068957;28;20035;-71
2023/07/22 00:17:24;;;;;;;14.57;7.22;;;;;;;15.09;93.53;101318.53;5067769;28;20035;-71
2023/07/22 00:19:49;;;;;;;15.45;7.88;;;;;;;15.07;94.08;101315.25;5068813;28;20036;-71
2023/07/22 00:22:15;;;;;;;19.92;10.10;;;;;;;15.03;93.92;101309.47;5068903;28;20035;-71
2023/07/22 00:24:40;;;;;;;16.05;8.52;;;;;;;14.98;93.93;101303.09;5068914;28;20032;-71
2023/07/22 00:27:08;;;;;;;19.42;9.27;;;;;;;15.01;93.68;101311.56;5068960;28;20086;-71
2023/07/22 00:29:34;;;;;;;14.75;8.00;;;;;;;15.03;93.90;101311.31;5067838;28;20036;-71
2023/07/22 00:31:59;;;;;;;16.75;7.50;;;;;;;15.02;93.84;101307.81;5068914;28;20428;-71
2023/07/22 00:34:25;;;;;;;18.90;8.65;;;;;;;15.05;93.69;101318.13;5067551;28;20036;-71
2023/07/22 00:36:50;;;;;;;17.20;9.77;;;;;;;15.05;93.70;101310.06;5071578;28;20021;-71
2023/07/22 00:39:15;;;;;;;16.73;8.23;;;;;;;15.06;93.96;101313.59;5072680;28;20029;-71
2023/07/22 00:41:44;;;;;;;19.35;10.18;;;;;;;15.05;94.62;101311.94;5072511;28;20028;-71
2023/07/22 00:44:12;;;;;;;18.17;8.98;;;;;;;15.06;95.77;101302.84;5072606;28;20440;-71
2023/07/22 00:46:38;;;;;;;20.45;7.82;;;;;;;15.04;96.39;101313.00;5072671;28;20111;-71
2023/07/22 00:49:06;;;;;;;17.65;9.27;;;;;;;15.01;97.20;101308.88;5072547;28;20135;-71
2023/07/22 00:51:32;;;;;;;20.63;10.18;;;;;;;14.99;97.58;101319.00;5071897;28;20029;-71
2023/07/22 00:53:57;;;;;;;18.40;9.45;;;;;;;14.93;99.69;101319.84;5072224;28;20974;-71
2023/07/22 00:56:22;;;;;;;21.85;10.10;;;;;;;14.84;100.00;101299.66;5072381;28;20036;-71
2023/07/22 00:58:48;;;;;;;20.05;9.38;;;;;;;14.72;100.00;101301.34;5072305;28;20047;-71
2023/07/22 01:01:13;;;;;;;22.08;10.10;;;;;;;14.65;100.00;101294.16;5070916;28;20035;-71
2023/07/22 01:03:38;;;;;;;19.45;9.25;;;;;;;14.57;100.00;101299.78;5072268;28;20024;-71
2023/07/22 01:06:04;;;;;;;19.17;8.95;;;;;;;14.52;100.00;101296.88;5072128;28;20056;-71
2023/07/22 01:08:30;;;;;;;18.33;9.15;;;;;;;14.47;100.00;101292.13;5072136;28;20035;-71
2023/07/22 01:10:55;;;;;;;23.17;9.75;;;;;;;14.39;100.00;101287.00;5072068;28;20086;-71
2023/07/22 01:13:21;;;;;;;18.35;9.35;;;;;;;14.40;100.00;101294.00;5071905;28;20033;-71
2023/07/22 01:15:46;;;;;;;20.15;9.40;;;;;;;14.37;100.00;101291.72;5071881;28;20044;-70
2023/07/22 01:18:12;;;;;;;19.55;9.68;;;;;;;14.35;100.00;101288.44;5071898;28;20059;-71
2023/07/22 01:20:38;;;;;;;19.88;10.43;;;;;;;14.33;100.00;101282.47;5071897;28;20120;-70
2023/07/22 01:23:04;;;;;;;18.08;8.35;;;;;;;14.33;100.00;101287.84;5070651;28;20059;-71
2023/07/22 01:25:30;;;;;;;21.25;11.75;;;;;;;14.34;100.00;101284.13;5070508;28;21037;-71
2023/07/22 01:27:55;;;;;;;22.73;9.45;;;;;;;14.35;100.00;101283.06;5071767;28;20119;-71
2023/07/22 01:30:21;;;;;;;20.63;10.48;;;;;;;14.31;100.00;101278.34;5071749;28;20488;-70
2023/07/22 01:32:46;;;;;;;21.05;9.82;;;;;;;14.31;100.00;101279.16;5071818;28;20032;-71
2023/07/22 01:35:12;;;;;;;19.50;9.52;;;;;;;14.33;100.00;101285.16;5071670;28;20029;-71
2023/07/22 01:37:37;;;;;;;19.38;10.23;;;;;;;14.29;100.00;101272.38;5070352;28;20525;-70
2023/07/22 01:40:12;;;;;;;22.10;10.40;;;;;;;14.34;100.00;101270.69;5070217;28;20111;-71
2023/07/22 01:42:42;;;;;;;18.52;8.48;;;;;;;14.33;100.00;101271.75;5071627;28;20051;-71
2023/07/22 01:45:08;;;;;;;20.17;10.02;;;;;;;14.29;100.00;101267.81;5071551;28;20439;-71
2023/07/22 01:47:35;;;;;;;20.38;9.20;;;;;;;14.31;100.00;101273.81;5069722;28;20036;-71
2023/07/22 01:50:00;;;;;;;20.88;11.13;;;;;;;14.29;100.00;101269.69;5071437;28;20028;-71
2023/07/22 01:52:26;;;;;;;16.55;8.60;;;;;;;14.27;100.00;101261.00;5071251;28;20086;-71
2023/07/22 01:54:51;;;;;;;21.60;10.93;;;;;;;14.29;100.00;101267.00;5071150;28;20102;-71
2023/07/22 01:57:16;;;;;;;20.33;10.68;;;;;;;14.23;100.00;101260.63;5071358;28;20075;-71
2023/07/22 01:59:42;;;;;;;16.88;8.05;;;;;;;14.25;100.00;101271.94;5071204;28;20037;-71
2023/07/22 02:02:07;;;;;;;16.95;9.05;;;;;;;14.23;100.00;101269.50;5071054;28;20032;-70
2023/07/22 02:04:32;;;;;;;19.30;8.50;;;;;;;14.23;100.00;101266.81;5071128;28;20024;-71
2023/07/22 02:06:58;;;;;;;20.95;9.90;;;;;;;14.22;100.00;101273.19;5071029;28;20483;-71
2023/07/22 02:09:23;;;;;;;19.30;9.77;;;;;;;14.15;100.00;101250.94;5070840;28;20700;-71
2023/07/22 02:11:49;;;;;;;18.35;10.38;;;;;;;14.22;100.00;101267.81;5069758;28;20040;-71
2023/07/22 02:14:14;;;;;;;19.13;9.10;;;;;;;14.23;100.00;101272.19;5070960;28;20391;-71
2023/07/22 02:16:39;;;;;;;21.58;11.05;;;;;;;14.24;100.00;101263.06;5071038;28;20029;-70
2023/07/22 02:19:05;;;;;;;18.65;9.50;;;;;;;14.21;100.00;101266.19;5070857;28;20114;-71
2023/07/22 02:21:30;;;;;;;19.17;9.45;;;;;;;14.24;100.00;101260.41;5070871;28;20036;-71
2023/07/22 02:23:56;;;;;;;21.85;9.85;;;;;;;14.24;100.00;101251.53;5070642;28;21120;-71
2023/07/22 02:26:21;;;;;;;22.20;10.63;;;;;;;14.23;100.00;101253.41;5069431;28;20043;-70
2023/07/22 02:28:48;;;;;;;18.90;10.10;;;;;;;14.27;100.00;101253.78;5070618;28;20040;-71
2023/07/22 02:31:13;;;;;;;21.63;9.40;;;;;;;14.28;100.00;101258.13;5070361;28;20085;-70
2023/07/22 02:33:38;;;;;;;20.92;8.50;;;;;;;14.25;100.00;101255.84;5070419;28;20025;-70
2023/07/22 02:36:04;;;;;;;17.38;8.88;;;;;;;14.24;100.00;101257.72;5070339;28;20091;-71
2023/07/22 02:38:29;;;;;;;18.70;9.93;;;;;;;14.26;100.00;101249.47;5070279;28;20031;-70
2023/07/22 02:40:55;;;;;;;19.02;10.07;;;;;;;14.26;100.00;101252.16;5070309;28;20024;-71
2023/07/22 02:43:20;;;;;;;19.52;10.43;;;;;;;14.25;100.00;101250.47;5070484;28;20020;-70
2023/07/22 02:45:46;;;;;;;18.83;9.93;;;;;;;14.27;100.00;101255.66;5070308;28;20033;-70
2023/07/22 02:48:11;;;;;;;20.48;9.85;;;;;;;14.23;100.00;101239.16;5068992;28;20024;-70
2023/07/22 02:50:36;;;;;;;17.90;9.18;;;;;;;14.24;100.00;101246.16;5070241;28;20032;-70
2023/07/22 02:53:02;;;;;;;20.88;10.35;;;;;;;14.19;100.00;101240.59;5069920;28;20035;-70
2023/07/22 02:55:28;;;;;;;20.30;10.25;;;;;;;14.24;100.00;101254.22;5069976;28;20132;-70
2023/07/22 02:57:53;;;;;;;19.00;10.18;;;;;;;14.23;100.00;101255.25;5069535;28;20058;-70
2023/07/22 03:00:25;;;;;;;19.83;10.05;;;;;;;14.20;100.00;101252.97;5069950;28;20036;-70
2023/07/22 03:02:52;;;;;;;19.90;9.38;;;;;;;14.16;100.00;101243.72;5069962;28;20028;-70
2023/07/22 03:05:19;;;;;;;20.98;9.80;;;;;;;14.12;100.00;101248.69;5069994;28;20035;-70
2023/07/22 03:07:44;;;;;;;19.48;10.45;;;;;;;14.09;100.00;101249.09;5069876;28;20445;-70
2023/07/22 03:10:10;;;;;;;21.35;10.57;;;;;;;14.05;100.00;101260.47;5069873;28;20032;-70
2023/07/22 03:12:36;;;;;;;18.38;8.73;;;;;;;14.01;100.00;101255.50;5069949;28;20042;-70
2023/07/22 03:15:03;;;;;;;18.23;9.77;;;;;;;13.99;100.00;101252.22;5069819;28;20073;-70
2023/07/22 03:17:29;;;;;;;21.80;11.90;;;;;;;13.96;100.00;101252.66;5069704;28;20063;-71
2023/07/22 03:19:55;;;;;;;24.73;10.27;;;;;;;13.90;100.00;101264.19;5069762;28;20537;-70
2023/07/22 03:22:20;;;;;;;21.48;10.35;;;;;;;13.87;100.00;101266.47;5069660;28;20044;-70
2023/07/22 03:24:46;;;;;;;20.25;10.15;;;;;;;13.85;100.00;101263.97;5068158;28;20039;-70
2023/07/22 03:27:12;;;;;;;19.00;8.40;;;;;;;13.79;100.00;101268.31;5069554;28;20032;-70
2023/07/22 03:29:38;;;;;;;23.85;10.05;;;;;;;13.77;100.00;101267.69;5069539;28;20097;-70
2023/07/22 03:32:04;;;;;;;22.48;9.55;;;;;;;13.72;100.00;101267.50;5069457;28;20040;-71
2023/07/22 03:34:30;;;;;;;21.17;9.30;;;;;;;13.74;100.00;101270.81;5069273;28;20039;-71
2023/07/22 03:36:56;;;;;;;20.25;10.38;;;;;;;13.72;100.00;101274.72;5069307;28;20036;-71
2023/07/22 03:39:22;;;;;;;18.88;8.43;;;;;;;13.72;100.00;101280.91;5069432;28;20039;-71
2023/07/22 03:41:47;;;;;;;19.02;8.52;;;;;;;13.70;100.00;101274.94;5069483;28;20467;-71
2023/07/22 03:44:12;;;;;;;27.90;9.98;;;;;;;13.68;100.00;101268.97;5069264;28;20052;-71
2023/07/22 03:46:38;;;;;;;18.17;8.90;;;;;;;13.67;100.00;101275.34;5069413;28;20043;-70
2023/07/22 03:49:03;;;;;;;21.20;9.60;;;;;;;13.64;100.00;101275.75;5069306;28;20131;-71
2023/07/22 03:51:29;;;;;;;20.25;10.45;;;;;;;13.57;100.00;101250.78;5069124;28;20025;-71
2023/07/22 03:53:54;;;;;;;21.63;9.82;;;;;;;13.63;100.00;101271.44;5068882;28;20377;-71
2023/07/22 03:56:20;;;;;;;20.30;9.77;;;;;;;13.62;100.00;101275.13;5069250;28;20035;-71
2023/07/22 03:58:45;;;;;;;18.95;8.70;;;;;;;13.63;100.00;101270.63;5069145;28;20507;-71
2023/07/22 04:01:11;;;;;;;18.65;10.02;;;;;;;13.54;100.00;101262.75;5069149;28;20036;-71
2023/07/22 04:03:37;;;;;;;21.20;10.68;;;;;;;13.57;100.00;101270.41;5069035;28;20059;-71
2023/07/22 04:06:02;;;;;;;19.45;9.00;;;;;;;13.57;100.00;101270.41;5069009;28;20484;-71
2023/07/22 04:08:28;;;;;;;20.98;10.50;;;;;;;13.56;100.00;101270.59;5069108;28;20110;-71
2023/07/22 04:10:55;;;;;;;17.42;8.52;;;;;;;13.57;100.00;101272.25;5070845;28;20020;-71
2023/07/22 04:13:20;;;;;;;19.73;8.80;;;;;;;13.57;100.00;101265.03;5073061;28;20055;-71
2023/07/22 04:15:49;;;;;;;19.30;9.15;;;;;;;13.58;100.00;101269.38;5073065;28;20036;-71
2023/07/22 04:18:16;;;;;;;16.75;8.45;;;;;;;13.59;100.00;101270.19;5073117;28;20081;-71
2023/07/22 04:20:41;;;;;;;18.40;9.20;;;;;;;13.58;100.00;101269.38;5072956;28;20051;-71
2023/07/22 04:23:06;;;;;;;19.05;9.70;;;;;;;13.62;100.00;101269.75;5072957;28;20021;-71
2023/07/22 04:25:32;;;;;;;20.90;7.68;;;;;;;13.61;100.00;101280.72;5072950;28;20082;-71
2023/07/22 04:27:57;;;;;;;19.45;8.88;;;;;;;13.63;100.00;101273.28;5072892;28;20089;-71
2023/07/22 04:30:24;;;;;;;19.48;8.60;;;;;;;13.63;100.00;101274.13;5072769;28;20120;-71
2023/07/22 04:32:49;;;;;;;18.45;8.32;;;;;;;13.60;100.00;101263.81;5072866;28;20086;-71
2023/07/22 04:35:17;;;;;;;20.13;9.35;;;;;;;13.63;100.00;101276.78;5072606;28;20040;-71
2023/07/22 04:37:44;;;;;;;18.13;8.27;;;;;;;13.62;100.00;101280.50;5072870;28;20434;-71
2023/07/22 04:40:13;;;;;;;18.13;8.70;;;;;;;13.64;100.00;101282.97;5072633;28;20035;-71
2023/07/22 04:42:39;;;;;;;18.45;8.30;;;;;;;13.62;100.00;101279.66;5072681;28;20043;-71
2023/07/22 04:45:06;;;;;;;19.95;8.73;;;;;;;13.65;100.00;101280.09;5072449;28;20115;-71
2023/07/22 04:47:32;;;;;;;24.73;10.55;;;;;;;13.66;100.00;101275.56;5072526;28;20433;-71
2023/07/22 04:49:57;;;;;;;18.95;9.80;;;;;;;13.62;100.00;101266.25;5072416;28;20970;-71
2023/07/22 04:52:22;;;;;;;18.85;8.90;;;;;;;13.70;100.00;101277.63;5072120;28;20556;-71
2023/07/22 04:54:47;;;;;;;18.55;8.63;;;;;;;13.74;100.00;101278.03;5072136;28;20059;-71
2023/07/22 04:57:13;;;;;;;19.48;9.52;;;;;;;13.77;100.00;101283.78;5071967;28;20148;-71
2023/07/22 04:59:38;;;;;;;18.33;9.00;;;;;;;13.71;100.00;101265.03;5072237;28;20123;-71
2023/07/22 05:02:04;;;;;;;15.68;7.53;;;;;;;13.84;100.00;101282.97;5071985;28;20025;-71
2023/07/22 05:04:29;;;;;;;20.83;8.50;;;;;;;13.88;100.00;101273.47;5071838;28;20032;-71
2023/07/22 05:06:55;;;;;;;18.00;9.75;;;;;;;13.98;100.00;101282.72;5071870;28;20020;-70
2023/07/22 05:09:20;;;;;;;19.60;9.07;;;;;;;14.03;100.00;101282.94;5071910;28;20490;-71
2023/07/22 05:11:45;;;;;;;20.67;9.38;;;;;;;14.14;100.00;101284.16;5071856;28;20388;-71
2023/07/22 05:14:11;;;;;;;18.00;8.73;;;;;;;14.20;100.00;101285.16;5071728;28;20037;-71
2023/07/22 05:16:36;;;;;;;20.45;9.35;;;;;;;14.22;100.00;101291.16;5071613;28;20040;-71
2023/07/22 05:19:02;;;;;;;20.38;8.57;;;;;;;14.28;100.00;101284.13;5071622;28;20063;-71
2023/07/22 05:21:27;;;;;;;19.73;8.80;;;;;;;14.30;100.00;101293.59;5070967;28;20056;-71
2023/07/22 05:23:53;;;;;;;17.70;8.95;;;;;;;14.30;100.00;101282.06;5071862;28;20029;-71
2023/07/22 05:26:18;;;;;;;18.08;8.80;;;;;;;14.38;100.00;101287.19;5071713;28;20040;-71
2023/07/22 05:28:43;;;;;;;19.88;8.60;;;;;;;14.43;100.00;101290.88;5071735;28;20024;-70
2023/07/22 05:31:09;;;;;;;20.83;9.02;;;;;;;14.47;100.00;101277.88;5071598;28;20166;-71
2023/07/22 05:33:34;;;;;;;19.52;8.82;;;;;;;14.52;100.00;101285.31;5071715;28;20071;-71
2023/07/22 05:35:59;;;;;;;20.00;8.85;;;;;;;14.56;100.00;101279.31;5069901;28;20032;-71
2023/07/22 05:38:25;;;;;;;19.63;9.63;;;;;;;14.62;100.00;101280.34;5071559;28;20043;-71
2023/07/22 05:40:52;;;;;;;22.00;9.85;;;;;;;14.71;100.00;101287.09;5071175;28;20032;-70
2023/07/22 05:43:18;;;;;;;19.00;9.60;;;;;;;14.79;100.00;101289.53;5071262;28;20021;-71
2023/07/22 05:45:43;;;;;;;20.27;8.45;;;;;;;14.87;100.00;101288.47;5071315;28;20384;-71
2023/07/22 05:48:09;;;;;;;20.40;9.55;;;;;;;15.03;100.00;101293.34;5071252;28;20033;-71
2023/07/22 05:50:34;;;;;;;18.20;9.27;;;;;;;15.16;100.00;101284.38;5071169;28;20035;-71
2023/07/22 05:52:59;;;;;;;21.42;9.88;;;;;;;15.23;100.00;101289.72;5071128;28;20093;-71
2023/07/22 05:55:26;;;;;;;17.08;8.00;;;;;;;15.24;100.00;101284.13;5070856;28;20063;-71
2023/07/22 05:57:51;;;;;;;21.35;9.45;;;;;;;15.34;100.00;101287.16;5071010;28;20396;-71
2023/07/22 06:00:17;;;;;;;21.13;9.50;;;;;;;15.33;100.00;101269.41;5070988;28;20039;-71
2023/07/22 06:02:42;;;;;;;19.02;9.35;;;;;;;15.43;100.00;101268.06;5070919;28;20389;-71
2023/07/22 06:05:08;;;;;;;21.45;9.35;;;;;;;15.46;100.00;101279.22;5070804;28;20036;-71
2023/07/22 06:07:33;;;;;;;21.92;10.75;;;;;;;15.50;100.00;101280.41;5070807;28;20028;-71
2023/07/22 06:09:59;;;;;;;20.80;9.18;;;;;;;15.61;100.00;101281.56;5070837;28;20043;-71
2023/07/22 06:12:24;;;;;;;21.60;10.13;;;;;;;15.66;100.00;101289.00;5070915;28;20024;-71
2023/07/22 06:14:50;;;;;;;19.70;8.93;;;;;;;15.69;100.00;101284.03;5070768;28;20497;-71
2023/07/22 06:17:15;;;;;;;21.15;10.40;;;;;;;15.66;100.00;101281.75;5070728;28;20111;-71
2023/07/22 06:19:40;;;;;;;21.58;8.27;;;;;;;15.65;100.00;101279.28;5070600;28;20162;-71
2023/07/22 06:22:06;;;;;;;24.48;9.80;;;;;;;15.72;100.00;101280.91;5069256;28;20577;-71
2023/07/22 06:24:31;;;;;;;20.17;8.88;;;;;;;15.81;100.00;101281.44;5070623;28;20024;-71
2023/07/22 06:26:56;;;;;;;18.92;9.40;;;;;;;15.92;100.00;101279.91;5070387;28;20459;-71
2023/07/22 06:29:22;;;;;;;22.10;11.68;;;;;;;16.07;100.00;101276.88;5069173;28;20094;-71
2023/07/22 06:31:47;;;;;;;21.88;10.05;;;;;;;16.17;100.00;101274.47;5070441;28;20117;-70
2023/07/22 06:34:13;;;;;;;20.83;9.75;;;;;;;16.25;100.00;101278.75;5069265;28;20025;-71
2023/07/22 06:36:38;;;;;;;23.60;10.45;;;;;;;16.30;100.00;101277.03;5070214;28;20040;-71
2023/07/22 06:39:03;;;;;;;21.30;10.00;;;;;;;16.29;100.00;101272.66;5070311;28;20040;-71
2023/07/22 06:41:29;;;;;;;22.33;10.70;;;;;;;16.30;100.00;101273.53;5070196;28;20033;-71
2023/07/22 06:43:55;;;;;;;24.67;10.30;;;;;;;16.36;100.00;101273.44;5070192;28;20488;-71
2023/07/22 06:46:21;;;;;;;23.88;11.07;;;;;;;16.42;100.00;101277.09;5069868;28;20036;-71
2023/07/22 06:48:47;;;;;;;18.52;10.73;;;;;;;16.40;100.00;101271.94;5070093;28;20036;-71
2023/07/22 06:51:12;;;;;;;20.70;9.32;;;;;;;16.36;100.00;101264.53;5069741;28;20481;-71
2023/07/22 06:53:38;;;;;;;21.05;9.32;;;;;;;16.31;100.00;101261.69;5069833;28;20194;-71
2023/07/22 06:56:03;;;;;;;21.20;9.20;;;;;;;16.31;100.00;101261.69;5070034;28;20048;-71
2023/07/22 06:58:29;;;;;;;23.90;11.27;;;;;;;16.35;100.00;101258.34;5069802;28;20487;-71
2023/07/22 07:00:55;;;;;;;21.20;10.82;;;;;;;16.41;100.00;101245.84;5069835;28;20036;-71
2023/07/22 07:03:22;;;;;;;25.45;11.20;;;;;;;16.52;100.00;101250.47;5069731;28;20082;-72
2023/07/22 07:05:54;;;;;;;19.30;10.32;;;;;;;16.68;100.00;101250.88;5069254;28;20858;-69
2023/07/22 07:08:20;;;;;;;22.40;10.40;;;;;;;16.91;100.00;101255.59;5069120;28;20033;-71
2023/07/22 07:10:45;;;;;;;24.75;11.65;;;;;;;17.13;100.00;101251.31;5068205;28;20028;-69
2023/07/22 07:13:10;;;;;;;20.27;9.82;;;;;;;17.21;99.28;101242.91;5069474;28;20105;-69
2023/07/22 07:15:36;;;;;;;20.42;8.65;;;;;;;17.37;100.00;101254.06;5069070;28;20041;-69
2023/07/22 07:18:01;;;;;;;22.08;10.40;;;;;;;17.42;99.84;101256.88;5069337;28;20048;-70
2023/07/22 07:20:26;;;;;;;21.05;9.23;;;;;;;17.38;98.51;101261.94;5069158;28;20364;-70
2023/07/22 07:22:52;;;;;;;19.42;8.73;;;;;;;17.33;99.05;101253.72;5069196;28;20094;-70
2023/07/22 07:25:17;;;;;;;24.05;9.57;;;;;;;17.23;99.11;101256.16;5069567;28;20390;-70
2023/07/22 07:27:43;;;;;;;21.33;9.55;;;;;;;17.20;98.11;101260.13;5069570;28;20032;-70
2023/07/22 07:30:09;;;;;;;22.23;10.20;;;;;;;17.19;98.70;101252.28;5069598;28;20067;-69
2023/07/22 07:32:35;;;;;;;21.98;9.05;;;;;;;17.23;98.50;101258.84;5069511;28;20094;-70
2023/07/22 07:35:01;;;;;;;19.30;9.77;;;;;;;17.23;98.10;101250.75;5069420;28;20511;-70
2023/07/22 07:37:26;;;;;;;23.33;9.32;;;;;;;17.23;99.48;101254.25;5069436;28;20044;-70
2023/07/22 07:39:52;;;;;;;17.35;8.20;;;;;;;17.24;99.45;101258.63;5067909;28;20036;-70
2023/07/22 07:42:17;;;;;;;19.30;8.48;;;;;;;17.21;99.87;101248.31;5069133;28;20020;-69
2023/07/22 07:44:43;;;;;;;22.65;9.55;;;;;;;17.28;99.57;101256.28;5068785;28;20017;-70
2023/07/22 07:47:08;;;;;;;20.02;9.25;;;;;;;17.29;99.77;101252.50;5067590;28;20383;-69
2023/07/22 07:49:33;;;;;;;19.90;9.00;;;;;;;17.34;98.94;101255.34;5068150;28;20075;-70
2023/07/22 07:51:59;;;;;;;20.38;8.75;;;;;;;17.40;97.96;101259.81;5068817;28;20028;-69
2023/07/22 07:54:24;;;;;;;21.98;9.55;;;;;;;17.45;97.67;101257.25;5068716;28;20139;-70
2023/07/22 07:56:51;;;;;;;17.58;8.02;;;;;;;17.49;97.47;101263.00;5068877;28;20056;-70
2023/07/22 07:59:16;;;;;;;16.35;8.35;;;;;;;17.39;98.93;101244.69;5069067;28;20025;-71
2023/07/22 08:01:41;;;;;;;19.63;9.45;;;;;;;17.52;98.57;101260.66;5068856;28;20029;-71
2023/07/22 08:04:08;;;;;;;16.42;9.50;;;;;;;17.57;97.08;101257.25;5067719;28;20095;-71
2023/07/22 08:06:33;;;;;;;21.17;10.05;;;;;;;17.69;97.09;101263.50;5068468;28;20028;-67
2023/07/22 08:08:59;;;;;;;17.63;8.80;;;;;;;17.91;97.91;101262.94;5068316;28;20032;-70
2023/07/22 08:11:24;;;;;;;20.85;9.45;;;;;;;18.20;98.04;101265.72;5068868;28;20059;-73
2023/07/22 08:13:51;;;;;;;18.15;8.13;;;;;;;18.46;95.54;101262.50;5068308;28;20364;-72
2023/07/22 08:16:17;;;;;;;18.45;8.05;;;;;;;18.79;92.53;101269.94;5067008;28;20494;-72
2023/07/22 08:18:43;;;;;;;19.27;8.52;;;;;;;19.13;91.58;101264.63;5067475;28;20036;-72
2023/07/22 08:21:09;;;;;;;16.15;7.22;;;;;;;19.21;90.09;101268.81;5068167;28;20036;-69
2023/07/22 08:23:36;;;;;;;16.42;8.60;;;;;;;19.14;87.89;101268.13;5068009;28;20037;-68
2023/07/22 08:26:05;;;;;;;16.88;8.18;;;;;;;19.51;86.66;101271.19;5068036;28;20063;-69
2023/07/22 08:28:30;;;;;;;16.30;7.18;;;;;;;19.61;85.26;101265.94;5068166;28;20103;-69
2023/07/22 08:30:56;;;;;;;19.63;7.28;;;;;;;19.58;85.60;101265.63;5067471;28;20201;-71
2023/07/22 08:33:24;;;;;;;17.45;7.93;;;;;;;19.47;85.38;101272.75;5068101;28;20033;-71
2023/07/22 08:35:53;;;;;;;16.58;6.88;;;;;;;19.35;86.06;101270.13;5068301;28;20495;-71
2023/07/22 08:38:18;;;;;;;14.02;5.85;;;;;;;19.25;86.49;101270.75;5067905;28;20501;-71
2023/07/22 08:40:43;;;;;;;13.75;6.85;;;;;;;19.19;85.88;101281.75;5067844;28;20035;-71
2023/07/22 08:43:11;;;;;;;16.90;7.32;;;;;;;19.09;85.62;101273.44;5068421;28;20574;-71
2023/07/22 08:45:38;;;;;;;13.32;7.05;;;;;;;19.24;86.65;101279.13;5068716;28;20064;-71
2023/07/22 08:48:09;;;;;;;11.85;6.18;;;;;;;20.03;80.32;101284.47;5068653;28;20542;-71
2023/07/22 08:50:42;;;;;;;13.57;6.80;;;;;;;21.21;76.49;101277.75;5068542;28;20107;-70
2023/07/22 08:53:07;;;;;;;11.45;5.70;;;;;;;21.62;73.68;101267.25;5068498;28;20108;-70
2023/07/22 08:55:34;;;;;;;13.85;6.25;;;;;;;22.27;71.94;101276.13;5068150;28;20078;-68
2023/07/22 08:58:00;;;;;;;12.32;5.78;;;;;;;23.01;66.47;101272.28;5071439;28;20036;-68
2023/07/22 09:00:26;;;;;;;11.45;4.32;;;;;;;23.81;63.23;101275.28;5072244;28;20090;-72
2023/07/22 09:02:53;;;;;;;10.93;4.57;;;;;;;24.73;58.31;101273.38;5071985;28;20044;-70
2023/07/22 09:05:18;;;;;;;12.40;5.03;;;;;;;24.45;57.80;101276.50;5072006;28;20028;-68
2023/07/22 09:07:44;;;;;;;12.65;6.10;;;;;;;23.36;61.00;101260.59;5071915;28;20089;-71
2023/07/22 09:10:09;;;;;;;13.55;4.90;;;;;;;22.79;64.92;101271.66;5072102;28;20487;-71
2023/07/22 09:12:40;;;;;;;7.35;4.57;;;;;;;22.26;65.47;101275.28;5070583;28;20036;-71
2023/07/22 09:15:12;;;;;;;10.15;4.72;;;;;;;21.84;66.60;101273.38;5070093;28;20021;-69
2023/07/22 09:17:41;;;;;;;9.30;4.60;;;;;;;21.49;68.26;101273.13;5071087;28;20501;-71
2023/07/22 09:20:07;;;;;;;8.90;5.20;;;;;;;21.01;68.67;101275.63;5070499;28;20678;-71
2023/07/22 09:22:33;;;;;;;14.52;4.95;;;;;;;20.84;72.04;101277.66;5070692;28;20031;-71
2023/07/22 09:25:12;;;;;;;10.07;4.90;;;;;;;20.73;71.00;101269.41;5070878;28;20024;-71
2023/07/22 09:27:38;;;;;;;11.82;4.38;;;;;;;20.55;71.32;101270.56;5071652;28;20024;-70
2023/07/22 09:30:45;;;;;;;11.23;5.18;;;;;;;20.39;71.14;101271.41;5071665;28;20068;-70
2023/07/22 09:33:28;;;;;;;13.73;4.90;;;;;;;20.31;72.09;101271.84;5070191;28;20518;-71
2023/07/22 09:35:55;;;;;;;8.38;4.57;;;;;;;20.08;71.49;101262.06;5071561;28;20032;-71
2023/07/22 09:38:25;;;;;;;11.43;4.00;;;;;;;20.14;73.21;101264.56;5071700;28;20075;-70
2023/07/22 09:40:51;;;;;;;10.38;4.80;;;;;;;20.09;73.03;101269.91;5071104;28;20024;-70
2023/07/22 09:43:16;;;;;;;8.55;3.78;;;;;;;20.21;71.72;101260.88;5070123;28;20105;-70
2023/07/22 09:45:46;;;;;;;7.70;3.65;;;;;;;20.22;68.76;101249.78;5071379;28;20052;-70
2023/07/22 09:48:11;;;;;;;10.70;4.38;;;;;;;20.14;71.14;101256.44;5071225;28;20045;-70
2023/07/22 09:50:36;;;;;;;9.43;3.92;;;;;;;20.01;71.65;101256.00;5071182;28;20433;-70
2023/07/22 09:53:03;;;;;;;8.90;4.68;;;;;;;19.90;70.78;101249.63;5071272;28;20476;-70
2023/07/22 09:55:30;;;;;;;9.02;3.28;;;;;;;19.84;72.27;101254.16;5070829;28;20487;-70
2023/07/22 09:58:09;;;;;;;10.68;4.68;;;;;;;19.80;71.41;101250.28;5071251;28;20410;-70
2023/07/22 10:00:35;;;;;;;8.52;4.45;;;;;;;19.84;73.75;101253.34;5069844;28;20814;-70
2023/07/22 10:03:04;;;;;;;10.35;4.57;;;;;;;19.96;74.34;101248.63;5069548;28;20029;-70
2023/07/22 10:05:34;;;;;;;9.60;4.00;;;;;;;20.11;75.61;101243.41;5070861;28;20489;-70
2023/07/22 10:07:59;;;;;;;11.35;5.70;;;;;;;20.23;75.34;101243.31;5070653;28;20056;-70
2023/07/22 10:10:53;;;;;;;6.32;3.38;;;;;;;20.32;72.08;101241.78;5070832;28;20510;-71
2023/07/22 10:13:19;;;;;;;7.80;4.47;;;;;;;20.35;72.88;101254.00;5069938;28;20079;-71
2023/07/22 10:15:45;;;;;;;8.48;3.92;;;;;;;20.45;71.00;101256.03;5070831;28;20036;-70
2023/07/22 10:18:11;;;;;;;7.35;4.05;;;;;;;20.49;71.73;101255.28;5070718;28;20059;-70
2023/07/22 10:20:37;;;;;;;9.43;5.18;;;;;;;20.49;73.77;101257.19;5070668;28;20498;-71
2023/07/22 10:23:03;;;;;;;7.70;4.22;;;;;;;20.45;73.07;101254.13;5070924;28;20383;-70
2023/07/22 10:25:29;;;;;;;10.00;5.18;;;;;;;20.44;71.71;101257.94;5070472;28;20077;-70
2023/07/22 10:27:55;;;;;;;9.25;4.18;;;;;;;20.48;71.98;101250.91;5070590;28;20033;-70
2023/07/22 10:30:21;;;;;;;11.38;4.30;;;;;;;20.66;70.40;101249.81;5070335;28;20035;-70
2023/07/22 10:32:48;;;;;;;5.78;3.40;;;;;;;20.87;69.68;101248.13;5070466;28;20036;-70
2023/07/22 10:35:26;;;;;;;8.05;3.80;;;;;;;21.12;70.48;101246.75;5070330;28;20422;-70
2023/07/22 10:37:52;;;;;;;6.30;3.85;;;;;;;21.28;68.96;101256.66;5070458;28;20451;-70
2023/07/22 10:40:24;;;;;;;8.32;4.63;;;;;;;21.41;69.52;101252.72;5069639;28;20476;-70
2023/07/22 10:43:05;;;;;;;8.02;4.40;;;;;;;21.43;67.12;101251.38;5069188;28;20028;-69
2023/07/22 10:45:32;;;;;;;;;;;;;;;21.42;69.00;101246.19;5069826;28;20040;-74
2023/07/22 10:48:05;;;;;;;9.73;4.30;;;;;;;21.18;69.13;101243.00;5069677;28;19917;-72
2023/07/22 10:50:48;;;;;;;12.80;5.20;;;;;;;21.07;68.41;101244.00;5069587;28;20040;-71
2023/07/22 10:53:39;;;;;;;10.93;3.72;;;;;;;20.94;70.88;101237.91;5069689;28;20033;-71
2023/07/22 10:56:18;;;;;;;5.43;3.33;;;;;;;20.89;72.21;101237.03;5069940;28;20052;-70
2023/07/22 10:58:46;;;;;;;7.88;3.35;;;;;;;20.71;68.83;101236.31;5069817;28;20487;-72
2023/07/22 11:01:24;;;;;;;5.72;3.03;;;;;;;20.78;68.75;101231.50;5069834;28;20086;-72
2023/07/22 11:04:17;;;;;;;8.50;3.10;;;;;;;21.18;69.31;101240.28;5070023;28;20381;-71
2023/07/22 11:06:48;;;;;;;7.28;2.85;;;;;;;21.24;66.50;101247.38;5068924;28;20090;-71
2023/07/22 11:09:34;;;;;;;4.75;2.92;;;;;;;21.23;65.41;101240.31;5069971;28;20032;-71